sensor_id;sensor_type;location;lat;lon;timestamp;P1;durP1;ratioP1;P2;durP2;ratioP2
12798;SDS011;19250;42.646;26.980;2022-10-03T00:02:30;2.05;;;1.00;;
12798;SDS011;19250;42.646;26.980;2022-10-03T00:05:17;2.55;;;1.20;;
12798;SDS011;19250;42.646;26.980;2022-10-03T00:08:07;2.10;;;0.93;;
12798;SDS011;19250;42.646;26.980;2022-10-03T00:10:50;1.67;;;1.00;;
12798;SDS011;19250;42.646;26.980;2022-10-03T00:13:30;1.67;;;1.00;;
12798;SDS011;19250;42.646;26.980;2022-10-03T00:16:07;1.35;;;1.08;;
12798;SDS011;19250;42.646;26.980;2022-10-03T00:18:44;1.27;;;1.10;;
12798;SDS011;19250;42.646;26.980;2022-10-03T00:24:18;1.75;;;0.90;;
12798;SDS011;19250;42.646;26.980;2022-10-03T00:26:54;1.88;;;1.05;;
12798;SDS011;19250;42.646;26.980;2022-10-03T00:32:39;2.63;;;0.95;;
12798;SDS011;19250;42.646;26.980;2022-10-03T00:35:19;2.83;;;1.00;;
12798;SDS011;19250;42.646;26.980;2022-10-03T00:38:03;2.80;;;1.08;;
12798;SDS011;19250;42.646;26.980;2022-10-03T00:50:03;2.50;;;1.00;;
12798;SDS011;19250;42.646;26.980;2022-10-03T00:52:47;1.90;;;1.00;;
12798;SDS011;19250;42.646;26.980;2022-10-03T00:55:32;1.23;;;0.90;;
12798;SDS011;19250;42.646;26.980;2022-10-03T00:58:17;2.45;;;0.90;;
12798;SDS011;19250;42.646;26.980;2022-10-03T01:03:51;3.72;;;0.98;;
12798;SDS011;19250;42.646;26.980;2022-10-03T01:06:31;2.00;;;0.90;;
12798;SDS011;19250;42.646;26.980;2022-10-03T01:09:18;2.47;;;0.90;;
12798;SDS011;19250;42.646;26.980;2022-10-03T01:12:02;1.75;;;0.90;;
12798;SDS011;19250;42.646;26.980;2022-10-03T01:14:59;2.63;;;1.02;;
12798;SDS011;19250;42.646;26.980;2022-10-03T01:17:38;1.10;;;0.82;;
12798;SDS011;19250;42.646;26.980;2022-10-03T01:20:24;1.83;;;1.10;;
12798;SDS011;19250;42.646;26.980;2022-10-03T01:25:51;1.30;;;0.90;;
12798;SDS011;19250;42.646;26.980;2022-10-03T01:31:33;2.40;;;0.80;;
12798;SDS011;19250;42.646;26.980;2022-10-03T01:34:10;3.28;;;1.10;;
12798;SDS011;19250;42.646;26.980;2022-10-03T01:36:46;2.20;;;0.80;;
12798;SDS011;19250;42.646;26.980;2022-10-03T01:39:27;2.10;;;0.90;;
12798;SDS011;19250;42.646;26.980;2022-10-03T01:42:02;1.48;;;0.75;;
12798;SDS011;19250;42.646;26.980;2022-10-03T01:44:40;1.60;;;0.80;;
12798;SDS011;19250;42.646;26.980;2022-10-03T01:47:21;0.93;;;0.60;;
12798;SDS011;19250;42.646;26.980;2022-10-03T01:49:57;1.20;;;0.70;;
12798;SDS011;19250;42.646;26.980;2022-10-03T01:52:34;1.95;;;0.80;;
12798;SDS011;19250;42.646;26.980;2022-10-03T01:55:11;2.38;;;0.90;;
12798;SDS011;19250;42.646;26.980;2022-10-03T01:57:48;1.27;;;0.77;;
12798;SDS011;19250;42.646;26.980;2022-10-03T02:00:23;3.97;;;1.02;;
12798;SDS011;19250;42.646;26.980;2022-10-03T02:02:53;1.25;;;0.70;;
12798;SDS011;19250;42.646;26.980;2022-10-03T02:05:34;2.17;;;0.90;;
12798;SDS011;19250;42.646;26.980;2022-10-03T02:08:08;2.00;;;0.90;;
12798;SDS011;19250;42.646;26.980;2022-10-03T02:10:49;1.40;;;0.80;;
12798;SDS011;19250;42.646;26.980;2022-10-03T02:13:22;1.20;;;0.85;;
12798;SDS011;19250;42.646;26.980;2022-10-03T02:15:57;1.17;;;0.98;;
12798;SDS011;19250;42.646;26.980;2022-10-03T02:18:35;1.55;;;0.90;;
12798;SDS011;19250;42.646;26.980;2022-10-03T02:21:11;3.25;;;1.02;;
12798;SDS011;19250;42.646;26.980;2022-10-03T02:23:43;1.83;;;1.00;;
12798;SDS011;19250;42.646;26.980;2022-10-03T02:32:35;1.00;;;0.80;;
12798;SDS011;19250;42.646;26.980;2022-10-03T02:35:49;1.73;;;1.10;;
12798;SDS011;19250;42.646;26.980;2022-10-03T02:41:43;3.77;;;1.07;;
12798;SDS011;19250;42.646;26.980;2022-10-03T02:44:44;2.33;;;1.05;;
12798;SDS011;19250;42.646;26.980;2022-10-03T02:47:46;2.60;;;1.10;;
12798;SDS011;19250;42.646;26.980;2022-10-03T02:50:44;1.80;;;1.00;;
12798;SDS011;19250;42.646;26.980;2022-10-03T02:53:48;1.15;;;0.90;;
12798;SDS011;19250;42.646;26.980;2022-10-03T02:56:56;3.30;;;1.00;;
12798;SDS011;19250;42.646;26.980;2022-10-03T03:00:05;1.40;;;0.90;;
12798;SDS011;19250;42.646;26.980;2022-10-03T03:05:52;2.83;;;1.05;;
12798;SDS011;19250;42.646;26.980;2022-10-03T03:08:51;2.92;;;1.30;;
12798;SDS011;19250;42.646;26.980;2022-10-03T03:14:53;1.25;;;0.90;;
12798;SDS011;19250;42.646;26.980;2022-10-03T03:18:34;2.13;;;1.00;;
12798;SDS011;19250;42.646;26.980;2022-10-03T03:21:12;2.20;;;1.00;;
12798;SDS011;19250;42.646;26.980;2022-10-03T03:23:56;1.40;;;0.98;;
12798;SDS011;19250;42.646;26.980;2022-10-03T03:26:45;1.60;;;1.15;;
12798;SDS011;19250;42.646;26.980;2022-10-03T03:29:36;1.58;;;1.05;;
12798;SDS011;19250;42.646;26.980;2022-10-03T03:32:11;2.95;;;1.10;;
12798;SDS011;19250;42.646;26.980;2022-10-03T03:34:54;3.70;;;1.10;;
12798;SDS011;19250;42.646;26.980;2022-10-03T03:37:37;3.10;;;1.40;;
12798;SDS011;19250;42.646;26.980;2022-10-03T03:40:17;2.75;;;1.30;;
12798;SDS011;19250;42.646;26.980;2022-10-03T03:43:09;2.20;;;1.30;;
12798;SDS011;19250;42.646;26.980;2022-10-03T03:45:50;3.35;;;1.27;;
12798;SDS011;19250;42.646;26.980;2022-10-03T03:51:29;2.23;;;1.13;;
12798;SDS011;19250;42.646;26.980;2022-10-03T03:54:09;4.80;;;1.35;;
12798;SDS011;19250;42.646;26.980;2022-10-03T03:57:00;1.98;;;1.40;;
12798;SDS011;19250;42.646;26.980;2022-10-03T04:02:41;2.83;;;1.90;;
12798;SDS011;19250;42.646;26.980;2022-10-03T04:05:22;2.90;;;2.03;;
12798;SDS011;19250;42.646;26.980;2022-10-03T04:08:04;3.75;;;1.70;;
12798;SDS011;19250;42.646;26.980;2022-10-03T04:10:55;5.60;;;1.90;;
12798;SDS011;19250;42.646;26.980;2022-10-03T04:16:40;7.35;;;2.20;;
12798;SDS011;19250;42.646;26.980;2022-10-03T04:19:39;3.50;;;1.80;;
12798;SDS011;19250;42.646;26.980;2022-10-03T04:22:27;4.60;;;1.88;;
12798;SDS011;19250;42.646;26.980;2022-10-03T04:25:14;5.07;;;2.85;;
12798;SDS011;19250;42.646;26.980;2022-10-03T04:27:59;7.72;;;6.43;;
12798;SDS011;19250;42.646;26.980;2022-10-03T04:30:41;9.07;;;5.60;;
12798;SDS011;19250;42.646;26.980;2022-10-03T04:33:23;10.83;;;7.50;;
12798;SDS011;19250;42.646;26.980;2022-10-03T04:36:23;12.13;;;8.15;;
12798;SDS011;19250;42.646;26.980;2022-10-03T04:39:17;9.45;;;5.50;;
12798;SDS011;19250;42.646;26.980;2022-10-03T04:41:55;9.80;;;4.18;;
12798;SDS011;19250;42.646;26.980;2022-10-03T04:44:38;7.53;;;4.30;;
12798;SDS011;19250;42.646;26.980;2022-10-03T04:47:18;6.18;;;3.40;;
12798;SDS011;19250;42.646;26.980;2022-10-03T04:49:54;6.60;;;2.43;;
12798;SDS011;19250;42.646;26.980;2022-10-03T04:52:27;6.75;;;2.20;;
12798;SDS011;19250;42.646;26.980;2022-10-03T04:55:05;7.20;;;2.65;;
12798;SDS011;19250;42.646;26.980;2022-10-03T04:57:46;5.05;;;1.50;;
12798;SDS011;19250;42.646;26.980;2022-10-03T05:00:21;8.68;;;2.50;;
12798;SDS011;19250;42.646;26.980;2022-10-03T05:02:57;8.13;;;2.80;;
12798;SDS011;19250;42.646;26.980;2022-10-03T05:05:38;8.75;;;2.42;;
12798;SDS011;19250;42.646;26.980;2022-10-03T05:08:15;5.72;;;2.05;;
12798;SDS011;19250;42.646;26.980;2022-10-03T05:10:50;4.78;;;2.20;;
12798;SDS011;19250;42.646;26.980;2022-10-03T05:13:29;6.68;;;2.40;;
12798;SDS011;19250;42.646;26.980;2022-10-03T05:16:06;10.07;;;2.55;;
12798;SDS011;19250;42.646;26.980;2022-10-03T05:18:41;6.50;;;2.42;;
12798;SDS011;19250;42.646;26.980;2022-10-03T05:21:20;7.18;;;2.58;;
12798;SDS011;19250;42.646;26.980;2022-10-03T05:23:57;7.43;;;3.13;;
12798;SDS011;19250;42.646;26.980;2022-10-03T05:26:38;10.60;;;3.90;;
12798;SDS011;19250;42.646;26.980;2022-10-03T05:29:16;6.00;;;3.60;;
12798;SDS011;19250;42.646;26.980;2022-10-03T05:31:57;6.23;;;2.90;;
12798;SDS011;19250;42.646;26.980;2022-10-03T05:34:39;4.30;;;2.10;;
12798;SDS011;19250;42.646;26.980;2022-10-03T05:37:20;7.25;;;2.45;;
12798;SDS011;19250;42.646;26.980;2022-10-03T05:40:06;8.00;;;2.53;;
12798;SDS011;19250;42.646;26.980;2022-10-03T05:42:49;4.15;;;1.80;;
12798;SDS011;19250;42.646;26.980;2022-10-03T05:45:28;4.43;;;1.85;;
12798;SDS011;19250;42.646;26.980;2022-10-03T05:48:17;9.45;;;1.98;;
12798;SDS011;19250;42.646;26.980;2022-10-03T05:51:06;3.95;;;1.83;;
12798;SDS011;19250;42.646;26.980;2022-10-03T05:57:01;5.90;;;2.70;;
12798;SDS011;19250;42.646;26.980;2022-10-03T06:02:53;7.03;;;2.38;;
12798;SDS011;19250;42.646;26.980;2022-10-03T06:05:43;7.82;;;2.20;;
12798;SDS011;19250;42.646;26.980;2022-10-03T06:08:35;6.40;;;1.63;;
12798;SDS011;19250;42.646;26.980;2022-10-03T06:11:20;3.35;;;1.50;;
12798;SDS011;19250;42.646;26.980;2022-10-03T06:17:41;2.15;;;1.35;;
12798;SDS011;19250;42.646;26.980;2022-10-03T06:29:46;4.00;;;1.80;;
12798;SDS011;19250;42.646;26.980;2022-10-03T06:32:48;2.83;;;1.50;;
12798;SDS011;19250;42.646;26.980;2022-10-03T06:44:50;2.25;;;1.10;;
12798;SDS011;19250;42.646;26.980;2022-10-03T06:47:39;1.83;;;1.13;;
12798;SDS011;19250;42.646;26.980;2022-10-03T06:50:24;1.63;;;1.15;;
12798;SDS011;19250;42.646;26.980;2022-10-03T06:53:09;2.60;;;1.13;;
12798;SDS011;19250;42.646;26.980;2022-10-03T06:55:59;3.60;;;1.92;;
12798;SDS011;19250;42.646;26.980;2022-10-03T06:59:06;3.67;;;2.22;;
12798;SDS011;19250;42.646;26.980;2022-10-03T07:01:57;4.93;;;3.03;;
12798;SDS011;19250;42.646;26.980;2022-10-03T07:05:00;1.45;;;1.13;;
12798;SDS011;19250;42.646;26.980;2022-10-03T07:10:50;3.38;;;1.15;;
12798;SDS011;19250;42.646;26.980;2022-10-03T07:13:41;15.40;;;6.63;;
12798;SDS011;19250;42.646;26.980;2022-10-03T07:17:01;2.13;;;1.13;;
12798;SDS011;19250;42.646;26.980;2022-10-03T07:19:54;1.63;;;0.93;;
12798;SDS011;19250;42.646;26.980;2022-10-03T07:26:10;5.87;;;1.20;;
12798;SDS011;19250;42.646;26.980;2022-10-03T07:31:57;2.35;;;0.95;;
12798;SDS011;19250;42.646;26.980;2022-10-03T07:38:11;3.22;;;1.05;;
12798;SDS011;19250;42.646;26.980;2022-10-03T07:41:25;4.03;;;1.33;;
12798;SDS011;19250;42.646;26.980;2022-10-03T07:44:10;2.57;;;1.03;;
12798;SDS011;19250;42.646;26.980;2022-10-03T07:50:17;1.77;;;0.80;;
12798;SDS011;19250;42.646;26.980;2022-10-03T07:53:07;2.08;;;0.90;;
12798;SDS011;19250;42.646;26.980;2022-10-03T07:55:54;2.38;;;0.88;;
12798;SDS011;19250;42.646;26.980;2022-10-03T07:58:48;1.88;;;1.00;;
12798;SDS011;19250;42.646;26.980;2022-10-03T08:01:37;2.58;;;1.38;;
12798;SDS011;19250;42.646;26.980;2022-10-03T08:04:47;1.08;;;0.73;;
12798;SDS011;19250;42.646;26.980;2022-10-03T08:07:39;2.55;;;0.70;;
12798;SDS011;19250;42.646;26.980;2022-10-03T08:10:37;2.60;;;0.80;;
12798;SDS011;19250;42.646;26.980;2022-10-03T08:13:26;2.75;;;1.00;;
12798;SDS011;19250;42.646;26.980;2022-10-03T08:16:05;2.27;;;1.07;;
12798;SDS011;19250;42.646;26.980;2022-10-03T08:18:55;1.65;;;0.93;;
12798;SDS011;19250;42.646;26.980;2022-10-03T08:21:44;1.63;;;1.00;;
12798;SDS011;19250;42.646;26.980;2022-10-03T08:24:31;3.00;;;0.93;;
12798;SDS011;19250;42.646;26.980;2022-10-03T08:27:24;1.40;;;0.90;;
12798;SDS011;19250;42.646;26.980;2022-10-03T08:38:59;2.90;;;1.30;;
12798;SDS011;19250;42.646;26.980;2022-10-03T08:51:09;2.88;;;1.30;;
12798;SDS011;19250;42.646;26.980;2022-10-03T08:54:10;4.47;;;1.77;;
12798;SDS011;19250;42.646;26.980;2022-10-03T09:09:11;4.20;;;1.85;;
12798;SDS011;19250;42.646;26.980;2022-10-03T09:12:02;1.95;;;1.10;;
12798;SDS011;19250;42.646;26.980;2022-10-03T09:18:12;1.55;;;0.95;;
12798;SDS011;19250;42.646;26.980;2022-10-03T09:24:12;2.17;;;1.38;;
12798;SDS011;19250;42.646;26.980;2022-10-03T09:36:05;4.28;;;1.00;;
12798;SDS011;19250;42.646;26.980;2022-10-03T09:38:55;5.32;;;1.00;;
12798;SDS011;19250;42.646;26.980;2022-10-03T09:44:42;3.97;;;1.40;;
12798;SDS011;19250;42.646;26.980;2022-10-03T09:47:36;6.80;;;2.15;;
12798;SDS011;19250;42.646;26.980;2022-10-03T09:59:59;2.42;;;1.10;;
12798;SDS011;19250;42.646;26.980;2022-10-03T10:21:15;1.52;;;0.90;;
12798;SDS011;19250;42.646;26.980;2022-10-03T10:27:33;5.10;;;1.33;;
12798;SDS011;19250;42.646;26.980;2022-10-03T10:30:25;2.30;;;1.30;;
12798;SDS011;19250;42.646;26.980;2022-10-03T10:33:27;5.00;;;1.30;;
12798;SDS011;19250;42.646;26.980;2022-10-03T10:42:54;2.88;;;1.20;;
12798;SDS011;19250;42.646;26.980;2022-10-03T10:46:01;4.30;;;1.60;;
12798;SDS011;19250;42.646;26.980;2022-10-03T10:48:56;4.28;;;1.80;;
12798;SDS011;19250;42.646;26.980;2022-10-03T10:51:58;7.63;;;3.10;;
12798;SDS011;19250;42.646;26.980;2022-10-03T10:58:19;0.10;;;0.10;;
12798;SDS011;19250;42.646;26.980;2022-10-03T11:01:20;0.10;;;0.10;;
12798;SDS011;19250;42.646;26.980;2022-10-03T11:04:18;2.00;;;1.38;;
12798;SDS011;19250;42.646;26.980;2022-10-03T11:07:24;0.10;;;0.10;;
12798;SDS011;19250;42.646;26.980;2022-10-03T11:19:33;0.10;;;0.10;;
12798;SDS011;19250;42.646;26.980;2022-10-03T11:26:15;0.10;;;0.10;;
12798;SDS011;19250;42.646;26.980;2022-10-03T11:32:22;0.57;;;0.57;;
12798;SDS011;19250;42.646;26.980;2022-10-03T11:38:34;0.03;;;0.03;;
12798;SDS011;19250;42.646;26.980;2022-10-03T11:41:10;0.10;;;0.10;;
12798;SDS011;19250;42.646;26.980;2022-10-03T11:46:53;0.40;;;0.20;;
12798;SDS011;19250;42.646;26.980;2022-10-03T11:49:43;0.40;;;0.25;;
12798;SDS011;19250;42.646;26.980;2022-10-03T11:52:30;0.03;;;0.03;;
12798;SDS011;19250;42.646;26.980;2022-10-03T11:55:03;0.10;;;0.10;;
12798;SDS011;19250;42.646;26.980;2022-10-03T11:57:48;0.08;;;0.08;;
12798;SDS011;19250;42.646;26.980;2022-10-03T12:00:26;0.10;;;0.10;;
12798;SDS011;19250;42.646;26.980;2022-10-03T12:03:10;0.10;;;0.10;;
12798;SDS011;19250;42.646;26.980;2022-10-03T12:05:46;0.10;;;0.10;;
12798;SDS011;19250;42.646;26.980;2022-10-03T12:08:38;0.20;;;0.20;;
12798;SDS011;19250;42.646;26.980;2022-10-03T12:11:22;0.20;;;0.20;;
12798;SDS011;19250;42.646;26.980;2022-10-03T12:16:56;0.93;;;0.32;;
12798;SDS011;19250;42.646;26.980;2022-10-03T12:19:33;2.50;;;2.15;;
12798;SDS011;19250;42.646;26.980;2022-10-03T12:22:12;0.10;;;0.10;;
12798;SDS011;19250;42.646;26.980;2022-10-03T12:24:51;0.10;;;0.10;;
12798;SDS011;19250;42.646;26.980;2022-10-03T12:27:28;0.10;;;0.10;;
12798;SDS011;19250;42.646;26.980;2022-10-03T12:30:08;0.10;;;0.10;;
12798;SDS011;19250;42.646;26.980;2022-10-03T12:32:43;0.10;;;0.10;;
12798;SDS011;19250;42.646;26.980;2022-10-03T12:35:26;0.20;;;0.20;;
12798;SDS011;19250;42.646;26.980;2022-10-03T12:38:06;0.20;;;0.20;;
12798;SDS011;19250;42.646;26.980;2022-10-03T12:40:48;0.15;;;0.15;;
12798;SDS011;19250;42.646;26.980;2022-10-03T12:43:29;0.10;;;0.10;;
12798;SDS011;19250;42.646;26.980;2022-10-03T12:46:06;0.10;;;0.10;;
12798;SDS011;19250;42.646;26.980;2022-10-03T12:48:43;0.00;;;0.00;;
12798;SDS011;19250;42.646;26.980;2022-10-03T12:51:21;0.10;;;0.10;;
12798;SDS011;19250;42.646;26.980;2022-10-03T12:54:04;0.10;;;0.10;;
12798;SDS011;19250;42.646;26.980;2022-10-03T12:56:42;0.10;;;0.10;;
12798;SDS011;19250;42.646;26.980;2022-10-03T12:59:22;0.10;;;0.10;;
12798;SDS011;19250;42.646;26.980;2022-10-03T13:02:21;0.00;;;0.00;;
12798;SDS011;19250;42.646;26.980;2022-10-03T13:04:56;0.00;;;0.00;;
12798;SDS011;19250;42.646;26.980;2022-10-03T13:07:44;0.20;;;0.15;;
12798;SDS011;19250;42.646;26.980;2022-10-03T13:10:19;0.10;;;0.10;;
12798;SDS011;19250;42.646;26.980;2022-10-03T13:13:00;0.70;;;0.70;;
12798;SDS011;19250;42.646;26.980;2022-10-03T13:15:42;5.45;;;3.70;;
12798;SDS011;19250;42.646;26.980;2022-10-03T13:18:20;2.55;;;1.90;;
12798;SDS011;19250;42.646;26.980;2022-10-03T13:21:03;4.32;;;2.30;;
12798;SDS011;19250;42.646;26.980;2022-10-03T13:23:40;3.50;;;1.90;;
12798;SDS011;19250;42.646;26.980;2022-10-03T13:26:15;3.45;;;2.70;;
12798;SDS011;19250;42.646;26.980;2022-10-03T13:28:51;4.00;;;2.58;;
12798;SDS011;19250;42.646;26.980;2022-10-03T13:31:27;3.28;;;2.55;;
12798;SDS011;19250;42.646;26.980;2022-10-03T13:34:00;3.80;;;2.58;;
12798;SDS011;19250;42.646;26.980;2022-10-03T13:36:33;3.67;;;2.72;;
12798;SDS011;19250;42.646;26.980;2022-10-03T13:39:12;3.60;;;2.33;;
12798;SDS011;19250;42.646;26.980;2022-10-03T13:41:54;2.05;;;1.60;;
12798;SDS011;19250;42.646;26.980;2022-10-03T13:44:32;1.50;;;1.30;;
12798;SDS011;19250;42.646;26.980;2022-10-03T13:47:03;2.33;;;1.25;;
12798;SDS011;19250;42.646;26.980;2022-10-03T13:49:48;1.90;;;1.23;;
12798;SDS011;19250;42.646;26.980;2022-10-03T13:52:21;1.80;;;1.40;;
12798;SDS011;19250;42.646;26.980;2022-10-03T13:55:08;1.55;;;0.90;;
12798;SDS011;19250;42.646;26.980;2022-10-03T13:57:43;0.70;;;0.70;;
12798;SDS011;19250;42.646;26.980;2022-10-03T14:00:13;1.17;;;0.80;;
12798;SDS011;19250;42.646;26.980;2022-10-03T14:02:50;1.48;;;0.90;;
12798;SDS011;19250;42.646;26.980;2022-10-03T14:05:41;1.17;;;0.82;;
12798;SDS011;19250;42.646;26.980;2022-10-03T14:08:35;1.85;;;0.80;;
12798;SDS011;19250;42.646;26.980;2022-10-03T14:11:22;1.25;;;0.77;;
12798;SDS011;19250;42.646;26.980;2022-10-03T14:14:05;0.90;;;0.90;;
12798;SDS011;19250;42.646;26.980;2022-10-03T14:16:50;1.27;;;1.10;;
12798;SDS011;19250;42.646;26.980;2022-10-03T14:19:26;1.30;;;1.00;;
12798;SDS011;19250;42.646;26.980;2022-10-03T14:22:13;2.97;;;1.10;;
12798;SDS011;19250;42.646;26.980;2022-10-03T14:24:53;1.33;;;1.17;;
12798;SDS011;19250;42.646;26.980;2022-10-03T14:30:17;1.35;;;1.25;;
12798;SDS011;19250;42.646;26.980;2022-10-03T14:32:51;1.85;;;0.93;;
12798;SDS011;19250;42.646;26.980;2022-10-03T14:35:29;1.13;;;0.90;;
12798;SDS011;19250;42.646;26.980;2022-10-03T14:38:06;1.50;;;0.80;;
12798;SDS011;19250;42.646;26.980;2022-10-03T14:40:47;1.67;;;0.90;;
12798;SDS011;19250;42.646;26.980;2022-10-03T14:43:24;2.03;;;0.95;;
12798;SDS011;19250;42.646;26.980;2022-10-03T14:46:03;1.77;;;1.13;;
12798;SDS011;19250;42.646;26.980;2022-10-03T14:48:33;0.70;;;0.70;;
12798;SDS011;19250;42.646;26.980;2022-10-03T14:51:07;1.53;;;0.97;;
12798;SDS011;19250;42.646;26.980;2022-10-03T14:53:46;1.00;;;0.90;;
12798;SDS011;19250;42.646;26.980;2022-10-03T14:56:19;2.33;;;1.20;;
12798;SDS011;19250;42.646;26.980;2022-10-03T14:58:49;3.10;;;1.60;;
12798;SDS011;19250;42.646;26.980;2022-10-03T15:01:19;1.60;;;1.13;;
12798;SDS011;19250;42.646;26.980;2022-10-03T15:03:53;2.17;;;1.17;;
12798;SDS011;19250;42.646;26.980;2022-10-03T15:06:31;2.00;;;1.20;;
12798;SDS011;19250;42.646;26.980;2022-10-03T15:09:03;2.85;;;1.40;;
12798;SDS011;19250;42.646;26.980;2022-10-03T15:11:35;1.77;;;1.27;;
12798;SDS011;19250;42.646;26.980;2022-10-03T15:14:12;2.03;;;1.15;;
12798;SDS011;19250;42.646;26.980;2022-10-03T15:16:43;1.23;;;1.03;;
12798;SDS011;19250;42.646;26.980;2022-10-03T15:19:13;1.70;;;1.13;;
12798;SDS011;19250;42.646;26.980;2022-10-03T15:21:44;2.53;;;1.10;;
12798;SDS011;19250;42.646;26.980;2022-10-03T15:24:18;1.90;;;1.25;;
12798;SDS011;19250;42.646;26.980;2022-10-03T15:26:49;2.13;;;1.27;;
12798;SDS011;19250;42.646;26.980;2022-10-03T15:29:20;3.03;;;1.40;;
12798;SDS011;19250;42.646;26.980;2022-10-03T15:31:50;3.90;;;1.58;;
12798;SDS011;19250;42.646;26.980;2022-10-03T15:34:22;3.00;;;2.40;;
12798;SDS011;19250;42.646;26.980;2022-10-03T15:36:51;5.32;;;3.60;;
12798;SDS011;19250;42.646;26.980;2022-10-03T15:39:25;3.65;;;2.47;;
12798;SDS011;19250;42.646;26.980;2022-10-03T15:42:00;2.30;;;1.20;;
12798;SDS011;19250;42.646;26.980;2022-10-03T15:44:30;3.05;;;1.40;;
12798;SDS011;19250;42.646;26.980;2022-10-03T15:47:04;1.65;;;1.42;;
12798;SDS011;19250;42.646;26.980;2022-10-03T15:49:35;2.10;;;1.40;;
12798;SDS011;19250;42.646;26.980;2022-10-03T15:52:06;2.35;;;1.60;;
12798;SDS011;19250;42.646;26.980;2022-10-03T15:54:44;1.95;;;1.50;;
12798;SDS011;19250;42.646;26.980;2022-10-03T15:57:16;2.42;;;1.85;;
12798;SDS011;19250;42.646;26.980;2022-10-03T15:59:48;2.72;;;1.73;;
12798;SDS011;19250;42.646;26.980;2022-10-03T16:02:20;2.88;;;2.25;;
12798;SDS011;19250;42.646;26.980;2022-10-03T16:04:52;2.30;;;1.90;;
12798;SDS011;19250;42.646;26.980;2022-10-03T16:07:23;3.05;;;2.08;;
12798;SDS011;19250;42.646;26.980;2022-10-03T16:10:03;2.72;;;2.20;;
12798;SDS011;19250;42.646;26.980;2022-10-03T16:15:33;4.60;;;2.40;;
12798;SDS011;19250;42.646;26.980;2022-10-03T16:18:42;2.55;;;2.00;;
12798;SDS011;19250;42.646;26.980;2022-10-03T16:21:20;4.03;;;2.05;;
12798;SDS011;19250;42.646;26.980;2022-10-03T16:23:58;3.10;;;2.30;;
12798;SDS011;19250;42.646;26.980;2022-10-03T16:26:32;2.67;;;2.45;;
12798;SDS011;19250;42.646;26.980;2022-10-03T16:29:10;2.40;;;2.20;;
12798;SDS011;19250;42.646;26.980;2022-10-03T16:31:42;3.75;;;2.03;;
12798;SDS011;19250;42.646;26.980;2022-10-03T16:34:15;2.45;;;2.00;;
12798;SDS011;19250;42.646;26.980;2022-10-03T16:36:45;2.07;;;1.87;;
12798;SDS011;19250;42.646;26.980;2022-10-03T16:39:17;3.20;;;2.15;;
12798;SDS011;19250;42.646;26.980;2022-10-03T16:41:49;2.57;;;1.77;;
12798;SDS011;19250;42.646;26.980;2022-10-03T16:44:22;2.73;;;1.83;;
12798;SDS011;19250;42.646;26.980;2022-10-03T16:46:52;2.92;;;1.98;;
12798;SDS011;19250;42.646;26.980;2022-10-03T16:49:27;3.15;;;1.90;;
12798;SDS011;19250;42.646;26.980;2022-10-03T16:52:18;3.03;;;1.88;;
12798;SDS011;19250;42.646;26.980;2022-10-03T16:54:48;4.22;;;2.38;;
12798;SDS011;19250;42.646;26.980;2022-10-03T16:57:29;3.80;;;2.70;;
12798;SDS011;19250;42.646;26.980;2022-10-03T17:00:04;3.28;;;2.20;;
12798;SDS011;19250;42.646;26.980;2022-10-03T17:02:38;2.50;;;2.13;;
12798;SDS011;19250;42.646;26.980;2022-10-03T17:05:06;4.50;;;2.00;;
12798;SDS011;19250;42.646;26.980;2022-10-03T17:07:37;2.70;;;2.20;;
12798;SDS011;19250;42.646;26.980;2022-10-03T17:10:16;5.32;;;2.30;;
12798;SDS011;19250;42.646;26.980;2022-10-03T17:12:56;2.58;;;2.00;;
12798;SDS011;19250;42.646;26.980;2022-10-03T17:15:26;3.42;;;2.03;;
12798;SDS011;19250;42.646;26.980;2022-10-03T17:17:57;3.08;;;2.15;;
12798;SDS011;19250;42.646;26.980;2022-10-03T17:20:35;2.20;;;1.90;;
12798;SDS011;19250;42.646;26.980;2022-10-03T17:23:08;4.07;;;2.15;;
12798;SDS011;19250;42.646;26.980;2022-10-03T17:25:41;3.30;;;2.08;;
12798;SDS011;19250;42.646;26.980;2022-10-03T17:28:22;3.00;;;2.10;;
12798;SDS011;19250;42.646;26.980;2022-10-03T17:30:58;3.42;;;1.70;;
12798;SDS011;19250;42.646;26.980;2022-10-03T17:33:30;2.73;;;1.67;;
12798;SDS011;19250;42.646;26.980;2022-10-03T17:36:13;4.20;;;1.80;;
12798;SDS011;19250;42.646;26.980;2022-10-03T17:38:52;2.50;;;1.80;;
12798;SDS011;19250;42.646;26.980;2022-10-03T17:41:30;2.50;;;1.90;;
12798;SDS011;19250;42.646;26.980;2022-10-03T17:44:12;4.03;;;2.10;;
12798;SDS011;19250;42.646;26.980;2022-10-03T17:46:48;3.08;;;2.10;;
12798;SDS011;19250;42.646;26.980;2022-10-03T17:49:26;4.37;;;1.90;;
12798;SDS011;19250;42.646;26.980;2022-10-03T17:52:04;3.53;;;1.88;;
12798;SDS011;19250;42.646;26.980;2022-10-03T17:54:40;2.80;;;1.77;;
12798;SDS011;19250;42.646;26.980;2022-10-03T17:57:14;2.40;;;1.70;;
12798;SDS011;19250;42.646;26.980;2022-10-03T17:59:51;3.88;;;1.70;;
12798;SDS011;19250;42.646;26.980;2022-10-03T18:02:24;2.33;;;1.40;;
12798;SDS011;19250;42.646;26.980;2022-10-03T18:04:58;1.80;;;1.38;;
12798;SDS011;19250;42.646;26.980;2022-10-03T18:07:33;4.10;;;1.50;;
12798;SDS011;19250;42.646;26.980;2022-10-03T18:10:02;2.47;;;1.60;;
12798;SDS011;19250;42.646;26.980;2022-10-03T18:12:42;4.78;;;2.10;;
12798;SDS011;19250;42.646;26.980;2022-10-03T18:24:14;5.40;;;3.63;;
12798;SDS011;19250;42.646;26.980;2022-10-03T18:26:53;3.42;;;2.10;;
12798;SDS011;19250;42.646;26.980;2022-10-03T18:29:32;3.47;;;2.10;;
12798;SDS011;19250;42.646;26.980;2022-10-03T18:32:10;3.60;;;1.80;;
12798;SDS011;19250;42.646;26.980;2022-10-03T18:34:41;3.80;;;2.35;;
12798;SDS011;19250;42.646;26.980;2022-10-03T18:37:48;3.13;;;2.10;;
12798;SDS011;19250;42.646;26.980;2022-10-03T18:40:22;6.07;;;2.30;;
12798;SDS011;19250;42.646;26.980;2022-10-03T18:42:53;2.40;;;1.67;;
12798;SDS011;19250;42.646;26.980;2022-10-03T18:45:22;2.60;;;1.52;;
12798;SDS011;19250;42.646;26.980;2022-10-03T18:47:57;3.30;;;2.10;;
12798;SDS011;19250;42.646;26.980;2022-10-03T18:50:31;1.75;;;1.60;;
12798;SDS011;19250;42.646;26.980;2022-10-03T18:53:13;3.97;;;1.70;;
12798;SDS011;19250;42.646;26.980;2022-10-03T18:55:46;2.08;;;1.55;;
12798;SDS011;19250;42.646;26.980;2022-10-03T18:58:18;1.95;;;1.58;;
12798;SDS011;19250;42.646;26.980;2022-10-03T19:00:50;2.83;;;1.40;;
12798;SDS011;19250;42.646;26.980;2022-10-03T19:03:27;2.00;;;1.80;;
12798;SDS011;19250;42.646;26.980;2022-10-03T19:06:02;2.25;;;1.50;;
12798;SDS011;19250;42.646;26.980;2022-10-03T19:08:34;3.38;;;1.85;;
12798;SDS011;19250;42.646;26.980;2022-10-03T19:11:09;3.33;;;1.90;;
12798;SDS011;19250;42.646;26.980;2022-10-03T19:13:43;2.83;;;1.50;;
12798;SDS011;19250;42.646;26.980;2022-10-03T19:16:30;2.90;;;1.52;;
12798;SDS011;19250;42.646;26.980;2022-10-03T19:19:11;3.00;;;1.40;;
12798;SDS011;19250;42.646;26.980;2022-10-03T19:21:44;3.90;;;1.60;;
12798;SDS011;19250;42.646;26.980;2022-10-03T19:24:13;2.58;;;1.40;;
12798;SDS011;19250;42.646;26.980;2022-10-03T19:26:46;2.03;;;1.40;;
12798;SDS011;19250;42.646;26.980;2022-10-03T19:29:19;2.25;;;1.52;;
12798;SDS011;19250;42.646;26.980;2022-10-03T19:31:54;2.38;;;1.70;;
12798;SDS011;19250;42.646;26.980;2022-10-03T19:34:30;2.90;;;1.50;;
12798;SDS011;19250;42.646;26.980;2022-10-03T19:37:04;2.75;;;1.60;;
12798;SDS011;19250;42.646;26.980;2022-10-03T19:39:36;2.13;;;1.60;;
12798;SDS011;19250;42.646;26.980;2022-10-03T19:42:12;2.23;;;1.63;;
12798;SDS011;19250;42.646;26.980;2022-10-03T19:44:47;2.85;;;1.90;;